Djerba-Zarzis

Airport
ICAO code: 
DTTJ
Summary
ICAO Region: 
AFI
Territory: 
Location: 
Djerba, Tunisia,
Coordinates: 
Aerial View: 
33° 52' 30" N, 10° 46' 31.801" E
Metar
Observation
DTTJ 020330Z 19008KT 6000 NSC 10/06 Q1015 NOSIG
Station
Djerba Mellita
Date/Time
2021-12-02 03:30:00
Wind direction
190°
Wind speed
08 kts
Lowest cloud amount
nil significant cloud
Temperature
10°C
Dew point
6°C
Humidity
76%
QNH
1015 hPa
Weather condition
n/a

Description

Djerba - Zarzis International Airport is an airport serving Djerba in Tunisia.

Climatology

(Köppen climate classification BSh)

Runways

Designator Length Width Surface Rops
9/27 3100 45 ASP Yes/Yes
Airport map: 
Aerial View: 

SKYbrary Partners:

Safety knowledge contributed by: